createdAt,value
2022-09-12T00:01:22.605Z,26.02
2022-09-12T00:03:53.374Z,25.98
2022-09-12T00:06:23.933Z,25.95
2022-09-12T00:09:02.200Z,25.95
2022-09-12T00:11:29.644Z,25.92
2022-09-12T00:14:01.505Z,25.87
2022-09-12T00:16:31.987Z,25.91
2022-09-12T00:18:59.473Z,25.93
2022-09-12T00:21:26.626Z,25.96
2022-09-12T00:23:54.382Z,25.94
2022-09-12T00:26:22.157Z,25.97
2022-09-12T00:28:50.107Z,26.02
2022-09-12T00:31:24.406Z,26.03
2022-09-12T00:33:52.263Z,26.02
2022-09-12T00:36:22.039Z,25.99
2022-09-12T00:38:49.801Z,25.98
2022-09-12T00:41:38.910Z,26.00
2022-09-12T00:44:24.628Z,25.99
2022-09-12T00:47:02.401Z,25.94
2022-09-12T00:49:35.013Z,25.87
2022-09-12T00:52:20.829Z,25.84
2022-09-12T00:54:57.187Z,25.82
2022-09-12T00:57:28.469Z,25.78
2022-09-12T01:00:14.109Z,25.75
2022-09-12T01:02:45.954Z,25.72
2022-09-12T01:05:14.257Z,25.72
2022-09-12T01:07:42.048Z,25.71
2022-09-12T01:10:10.175Z,25.70
2022-09-12T01:12:40.463Z,25.70
2022-09-12T01:15:08.742Z,25.73
2022-09-12T01:18:00.614Z,25.74
2022-09-12T01:20:45.883Z,25.76
2022-09-12T01:23:13.000Z,25.76
2022-09-12T01:26:01.350Z,25.76
2022-09-12T01:28:40.255Z,25.73
2022-09-12T01:31:57.156Z,25.75
2022-09-12T01:34:37.609Z,25.74
2022-09-12T01:37:22.946Z,25.72
2022-09-12T01:39:50.480Z,25.70
2022-09-12T01:42:55.016Z,25.69
2022-09-12T01:45:28.641Z,25.66
2022-09-12T01:48:11.494Z,25.65
2022-09-12T01:50:47.967Z,25.67
2022-09-12T01:53:26.238Z,25.68
2022-09-12T01:56:22.766Z,25.67
2022-09-12T01:59:31.124Z,25.67
2022-09-12T02:02:06.580Z,25.68
2022-09-12T02:04:48.136Z,25.69
2022-09-12T02:07:25.996Z,25.68
2022-09-12T02:09:59.784Z,25.71
2022-09-12T02:12:32.261Z,25.72
2022-09-12T02:15:03.939Z,25.74
2022-09-12T02:17:38.884Z,25.74
2022-09-12T02:20:48.393Z,25.73
2022-09-12T02:23:23.487Z,25.73
2022-09-12T02:25:55.137Z,25.68
2022-09-12T02:28:28.022Z,25.63
2022-09-12T02:31:14.663Z,25.59
2022-09-12T02:33:44.459Z,25.57
2022-09-12T02:36:29.923Z,25.58
2022-09-12T02:38:57.070Z,25.59
2022-09-12T02:41:24.262Z,25.62
2022-09-12T02:43:53.219Z,25.65
2022-09-12T02:46:32.580Z,25.64
2022-09-12T02:48:59.708Z,25.62
2022-09-12T02:51:27.530Z,25.61
2022-09-12T02:53:54.702Z,25.60
2022-09-12T02:56:28.263Z,25.60
2022-09-12T02:58:57.650Z,25.62
2022-09-12T03:01:47.059Z,25.61
2022-09-12T03:04:35.865Z,25.61
2022-09-12T03:07:15.532Z,25.62
2022-09-12T03:10:20.256Z,25.64
2022-09-12T03:13:06.652Z,25.64
2022-09-12T03:16:04.025Z,25.63
2022-09-12T03:19:12.339Z,25.65
2022-09-12T03:22:22.704Z,25.66
2022-09-12T03:24:58.698Z,25.64
2022-09-12T03:27:39.777Z,25.64
2022-09-12T03:30:08.745Z,25.62
2022-09-12T03:32:49.123Z,25.63
2022-09-12T03:35:22.714Z,25.65
2022-09-12T03:37:51.782Z,25.65
2022-09-12T03:40:18.828Z,25.64
2022-09-12T03:42:45.913Z,25.64
2022-09-12T03:45:13.077Z,25.64
2022-09-12T03:47:40.525Z,25.65
2022-09-12T03:50:08.271Z,25.63
2022-09-12T03:52:35.431Z,25.61
2022-09-12T03:55:02.481Z,25.59
2022-09-12T03:57:29.827Z,25.56
2022-09-12T03:59:56.881Z,25.52
2022-09-12T04:02:24.017Z,25.50
2022-09-12T04:04:51.315Z,25.48
2022-09-12T04:07:18.471Z,25.49
2022-09-12T04:09:45.507Z,25.50
2022-09-12T04:12:14.560Z,25.50
2022-09-12T04:14:41.663Z,25.51
2022-09-12T04:17:09.201Z,25.52
2022-09-12T04:19:36.275Z,25.52
2022-09-12T04:22:04.092Z,25.52
2022-09-12T04:24:31.147Z,25.54
2022-09-12T04:26:58.672Z,25.58
2022-09-12T04:29:25.745Z,25.59
2022-09-12T04:31:52.801Z,25.59
2022-09-12T04:34:20.174Z,25.59
2022-09-12T04:36:47.281Z,25.60
2022-09-12T04:39:14.482Z,25.61
2022-09-12T04:41:44.750Z,25.60
2022-09-12T04:44:14.088Z,25.59
2022-09-12T04:46:45.222Z,25.59
2022-09-12T04:49:13.461Z,25.58
2022-09-12T04:51:42.330Z,25.56
2022-09-12T04:54:25.555Z,25.52
2022-09-12T04:56:53.062Z,25.51
2022-09-12T04:59:22.664Z,25.51
2022-09-12T05:01:50.163Z,25.49
2022-09-12T05:04:17.837Z,25.51
2022-09-12T05:06:47.318Z,25.51
2022-09-12T05:09:14.799Z,25.51
2022-09-12T05:14:32.900Z,25.48
2022-09-12T05:17:02.034Z,25.49
2022-09-12T05:19:30.879Z,25.50
2022-09-12T05:21:59.396Z,25.48
2022-09-12T05:24:26.676Z,25.48
2022-09-12T05:26:53.825Z,25.45
2022-09-12T05:29:20.940Z,25.41
2022-09-12T05:31:50.476Z,25.39
2022-09-12T05:34:17.567Z,25.34
2022-09-12T05:36:44.770Z,25.28
2022-09-12T05:39:12.463Z,25.24
2022-09-12T05:41:39.555Z,25.22
2022-09-12T05:44:11.481Z,25.23
2022-09-12T05:46:40.492Z,25.23
2022-09-12T05:49:13.414Z,25.25
2022-09-12T05:51:43.496Z,25.27
2022-09-12T05:54:12.668Z,25.26
2022-09-12T05:56:42.600Z,25.27
2022-09-12T05:59:18.770Z,25.31
2022-09-12T06:01:46.653Z,25.33
2022-09-12T06:04:13.889Z,25.35
2022-09-12T06:06:45.366Z,25.35
2022-09-12T06:09:14.752Z,25.36
2022-09-12T06:11:42.619Z,25.36
2022-09-12T06:14:12.643Z,25.34
2022-09-12T06:16:40.683Z,25.36
2022-09-12T06:19:13.416Z,25.37
2022-09-12T06:21:40.627Z,25.39
2022-09-12T06:24:08.000Z,25.36
2022-09-12T06:26:35.385Z,25.36
2022-09-12T06:29:03.392Z,25.33
2022-09-12T06:31:33.682Z,25.33
2022-09-12T06:34:07.042Z,25.33
2022-09-12T06:36:38.623Z,25.32
2022-09-12T06:39:12.724Z,25.33
2022-09-12T06:41:43.819Z,25.32
2022-09-12T06:44:15.953Z,25.26
2022-09-12T06:46:43.329Z,25.22
2022-09-12T06:49:11.256Z,25.20
2022-09-12T06:51:38.367Z,25.18
2022-09-12T06:54:06.141Z,25.19
2022-09-12T06:56:33.354Z,25.21
2022-09-12T06:59:00.401Z,25.23
2022-09-12T07:01:29.583Z,25.27
2022-09-12T07:03:59.623Z,25.29
2022-09-12T07:06:33.021Z,25.31
2022-09-12T07:09:01.399Z,25.27
2022-09-12T07:11:34.114Z,25.26
2022-09-12T07:14:03.700Z,25.23
2022-09-12T07:16:31.079Z,25.18
2022-09-12T07:19:00.462Z,25.17
2022-09-12T07:21:27.941Z,25.19
2022-09-12T07:23:58.430Z,25.20
2022-09-12T07:26:27.691Z,25.15
2022-09-12T07:29:07.839Z,25.12
2022-09-12T07:31:40.504Z,25.13
2022-09-12T07:34:07.705Z,25.15
2022-09-12T07:36:35.438Z,25.15
2022-09-12T07:39:02.619Z,25.15
2022-09-12T07:41:31.598Z,25.14
2022-09-12T07:44:00.929Z,25.13
2022-09-12T07:46:29.974Z,25.13
2022-09-12T07:48:58.469Z,25.16
2022-09-12T07:51:27.138Z,25.22
2022-09-12T07:53:54.586Z,25.25
2022-09-12T07:56:24.045Z,25.29
2022-09-12T07:58:53.254Z,25.35
2022-09-12T08:01:24.061Z,25.38
2022-09-12T08:03:56.064Z,25.41
2022-09-12T08:06:25.103Z,25.35
2022-09-12T08:08:54.346Z,25.39
2022-09-12T08:11:22.699Z,25.44
2022-09-12T08:13:55.288Z,25.45
2022-09-12T08:16:25.515Z,25.33
2022-09-12T08:18:53.134Z,25.20
2022-09-12T08:21:22.524Z,25.25
2022-09-12T08:23:54.563Z,25.27
2022-09-12T08:26:21.918Z,25.21
2022-09-12T08:28:49.515Z,25.20
2022-09-12T08:31:18.733Z,25.27
2022-09-12T08:33:46.436Z,25.34
2022-09-12T08:36:16.353Z,25.39
2022-09-12T08:38:45.850Z,25.44
2022-09-12T08:41:19.154Z,25.46
2022-09-12T08:43:46.294Z,25.52
2022-09-12T08:46:25.650Z,25.58
2022-09-12T08:48:55.959Z,25.65
2022-09-12T08:51:23.254Z,25.66
2022-09-12T08:53:54.729Z,25.59
2022-09-12T08:56:22.349Z,25.47
2022-09-12T08:58:49.601Z,25.46
2022-09-12T09:01:35.387Z,25.53
2022-09-12T09:04:25.741Z,25.56
2022-09-12T09:07:16.109Z,25.67
2022-09-12T09:09:50.635Z,25.76
2022-09-12T09:12:51.246Z,25.80
2022-09-12T09:15:41.197Z,25.71
2022-09-12T09:18:16.970Z,25.70
2022-09-12T09:21:02.450Z,25.76
2022-09-12T09:23:34.136Z,25.75
2022-09-12T09:26:10.996Z,25.81
2022-09-12T09:28:59.721Z,25.87
2022-09-12T09:31:38.893Z,25.90
2022-09-12T09:34:30.387Z,25.98
2022-09-12T09:37:21.304Z,26.04
2022-09-12T09:40:24.743Z,26.04
2022-09-12T09:43:04.311Z,26.01
2022-09-12T09:45:31.717Z,25.98
2022-09-12T09:48:17.717Z,25.91
2022-09-12T09:50:46.287Z,25.88
2022-09-12T09:53:27.023Z,25.86
2022-09-12T09:55:57.016Z,25.88
2022-09-12T09:58:36.744Z,25.94
2022-09-12T10:01:06.775Z,25.98
2022-09-12T10:03:39.362Z,26.05
2022-09-12T10:06:33.249Z,26.18
2022-09-12T10:09:18.823Z,26.32
2022-09-12T10:11:47.196Z,26.36
2022-09-12T10:14:32.338Z,26.19
2022-09-12T10:16:59.986Z,26.04
2022-09-12T10:19:52.693Z,26.07
2022-09-12T10:22:31.921Z,26.07
2022-09-12T10:25:01.381Z,26.06
2022-09-12T10:27:37.442Z,26.17
2022-09-12T10:30:16.652Z,26.30
2022-09-12T10:32:50.894Z,26.39
2022-09-12T10:35:44.133Z,26.29
2022-09-12T10:38:21.829Z,26.30
2022-09-12T10:40:58.210Z,26.24
2022-09-12T10:43:35.728Z,26.35
2022-09-12T10:46:15.046Z,26.54
2022-09-12T10:48:49.613Z,26.57
2022-09-12T10:51:25.599Z,26.36
2022-09-12T10:53:56.738Z,26.27
2022-09-12T10:56:36.420Z,26.31
2022-09-12T10:59:20.315Z,26.42
2022-09-12T11:02:01.687Z,26.48
2022-09-12T11:04:53.639Z,26.70
2022-09-12T11:07:48.654Z,26.86
2022-09-12T11:10:25.704Z,26.85
2022-09-12T11:13:30.931Z,26.88
2022-09-12T11:16:27.792Z,26.99
2022-09-12T11:19:34.536Z,27.07
2022-09-12T11:22:58.261Z,27.15
2022-09-12T11:25:51.891Z,27.21
2022-09-12T11:28:44.125Z,27.29
2022-09-12T11:31:51.661Z,27.32
2022-09-12T11:34:42.551Z,27.42
2022-09-12T11:37:35.119Z,27.56
2022-09-12T11:40:32.234Z,27.73
2022-09-12T11:43:09.825Z,27.92
2022-09-12T11:45:42.147Z,28.09
2022-09-12T11:48:17.032Z,28.15
2022-09-12T11:50:44.125Z,28.26
2022-09-12T11:53:28.102Z,28.39
2022-09-12T11:56:19.117Z,28.36
2022-09-12T11:59:16.282Z,28.38
2022-09-12T12:01:48.749Z,28.39
2022-09-12T12:04:21.317Z,28.38
2022-09-12T12:07:06.456Z,28.34
2022-09-12T12:09:34.228Z,28.33
2022-09-12T12:12:07.099Z,28.21
2022-09-12T12:14:47.245Z,28.31
2022-09-12T12:17:20.201Z,28.36
2022-09-12T12:19:49.127Z,28.38
2022-09-12T12:22:22.818Z,28.47
2022-09-12T12:24:56.013Z,28.43
2022-09-12T12:27:44.594Z,28.50
2022-09-12T12:30:29.973Z,28.61
2022-09-12T12:33:03.406Z,28.67
2022-09-12T12:35:53.512Z,28.55
2022-09-12T12:38:28.233Z,28.45
2022-09-12T12:41:17.752Z,28.48
2022-09-12T12:43:45.850Z,28.59
2022-09-12T12:46:17.637Z,28.67
2022-09-12T12:49:17.056Z,28.69
2022-09-12T12:51:59.370Z,28.85
2022-09-12T12:54:53.069Z,28.91
2022-09-12T12:57:29.147Z,29.07
2022-09-12T12:59:56.551Z,29.23
2022-09-12T13:02:40.212Z,29.25
2022-09-12T13:05:16.605Z,29.34
2022-09-12T13:07:44.892Z,29.39
2022-09-12T13:10:29.691Z,29.44
2022-09-12T13:13:01.905Z,29.33
2022-09-12T13:15:48.216Z,29.05
2022-09-12T13:18:23.709Z,28.88
2022-09-12T13:20:57.515Z,28.69
2022-09-12T13:23:30.541Z,28.71
2022-09-12T13:26:02.592Z,28.58
2022-09-12T13:28:31.499Z,28.53
2022-09-12T13:31:24.975Z,28.68
2022-09-12T13:33:56.176Z,28.94
2022-09-12T13:36:26.288Z,29.01
2022-09-12T13:39:28.209Z,29.09
2022-09-12T13:42:04.241Z,29.20
2022-09-12T13:44:33.172Z,29.29
2022-09-12T13:47:02.040Z,29.37
2022-09-12T13:49:41.188Z,29.49
2022-09-12T13:52:16.108Z,29.59
2022-09-12T13:54:46.119Z,29.63
2022-09-12T13:57:45.600Z,29.47
2022-09-12T14:00:20.366Z,29.37
2022-09-12T14:02:48.740Z,29.32
2022-09-12T14:05:24.588Z,29.28
2022-09-12T14:07:54.742Z,29.18
2022-09-12T14:10:32.205Z,29.08
2022-09-12T14:13:01.418Z,28.99
2022-09-12T14:15:31.579Z,29.01
2022-09-12T14:18:01.861Z,28.94
2022-09-12T14:20:33.694Z,28.97
2022-09-12T14:23:28.172Z,28.98
2022-09-12T14:25:57.357Z,28.98
2022-09-12T14:28:27.620Z,29.06
2022-09-12T14:31:22.541Z,29.21
2022-09-12T14:33:49.649Z,29.33
2022-09-12T14:36:20.127Z,29.24
2022-09-12T14:38:51.094Z,29.20
2022-09-12T14:41:31.193Z,29.21
2022-09-12T14:44:05.691Z,29.27
2022-09-12T14:46:41.819Z,29.36
2022-09-12T14:49:28.349Z,29.41
2022-09-12T14:52:01.453Z,29.48
2022-09-12T14:54:28.555Z,29.45
2022-09-12T14:57:05.010Z,29.33
2022-09-12T14:59:35.078Z,29.20
2022-09-12T15:02:14.167Z,29.00
2022-09-12T15:04:43.600Z,28.74
2022-09-12T15:07:34.175Z,28.52
2022-09-12T15:10:18.568Z,28.36
2022-09-12T15:12:45.689Z,28.26
2022-09-12T15:15:19.258Z,28.45
2022-09-12T15:17:47.198Z,28.64
2022-09-12T15:20:14.742Z,28.78
2022-09-12T15:22:42.672Z,28.78
2022-09-12T15:25:11.305Z,28.83
2022-09-12T15:27:41.166Z,28.79
2022-09-12T15:30:13.927Z,28.60
2022-09-12T15:32:43.812Z,28.44
2022-09-12T15:35:22.950Z,28.35
2022-09-12T15:37:50.938Z,28.43
2022-09-12T15:40:18.356Z,28.53
2022-09-12T15:42:45.501Z,28.64
2022-09-12T15:45:29.555Z,28.60
2022-09-12T15:47:57.429Z,28.47
2022-09-12T15:50:24.725Z,28.20
2022-09-12T15:52:52.555Z,28.01
2022-09-12T15:55:25.445Z,27.96
2022-09-12T15:57:52.619Z,27.94
2022-09-12T16:00:20.744Z,27.69
2022-09-12T16:02:50.668Z,27.27
2022-09-12T16:05:26.380Z,26.96
2022-09-12T16:07:55.374Z,26.84
2022-09-12T16:10:27.459Z,26.81
2022-09-12T16:12:54.939Z,26.79
2022-09-12T16:15:25.172Z,26.80
2022-09-12T16:17:52.703Z,26.93
2022-09-12T16:20:21.183Z,27.00
2022-09-12T16:22:48.767Z,27.05
2022-09-12T16:25:15.983Z,27.15
2022-09-12T16:27:43.456Z,27.09
2022-09-12T16:30:11.418Z,26.91
2022-09-12T16:32:38.629Z,26.93
2022-09-12T16:35:06.517Z,26.96
2022-09-12T16:37:34.978Z,26.93
2022-09-12T16:40:03.738Z,26.93
2022-09-12T16:42:30.906Z,26.87
2022-09-12T16:44:58.182Z,26.90
2022-09-12T16:47:25.331Z,26.87
2022-09-12T16:49:52.419Z,26.82
2022-09-12T16:52:19.665Z,26.80
2022-09-12T16:54:46.714Z,26.67
2022-09-12T16:57:13.910Z,26.63
2022-09-12T16:59:41.000Z,26.54
2022-09-12T17:02:11.038Z,26.54
2022-09-12T17:04:38.178Z,26.54
2022-09-12T17:07:05.487Z,26.46
2022-09-12T17:09:32.678Z,26.38
2022-09-12T17:11:59.924Z,26.33
2022-09-12T17:14:27.300Z,26.28
2022-09-12T17:16:54.478Z,26.20
2022-09-12T17:19:30.205Z,26.23
2022-09-12T17:21:57.992Z,26.29
2022-09-12T17:24:25.909Z,26.34
2022-09-12T17:26:53.896Z,26.34
2022-09-12T17:29:21.710Z,26.34
2022-09-12T17:31:49.152Z,26.33
2022-09-12T17:34:16.733Z,26.30
2022-09-12T17:36:45.515Z,26.32
2022-09-12T17:39:14.218Z,26.36
2022-09-12T17:41:46.186Z,26.41
2022-09-12T17:44:15.385Z,26.44
2022-09-12T17:46:43.046Z,26.44
2022-09-12T17:49:17.761Z,26.42
2022-09-12T17:51:45.375Z,26.42
2022-09-12T17:54:16.055Z,26.49
2022-09-12T17:56:44.637Z,26.54
2022-09-12T17:59:15.756Z,26.61
2022-09-12T18:02:01.710Z,26.65
2022-09-12T18:04:28.984Z,26.68
2022-09-12T18:06:58.014Z,26.66
2022-09-12T18:09:28.498Z,26.66
2022-09-12T18:11:55.864Z,26.71
2022-09-12T18:14:23.658Z,26.82
2022-09-12T18:16:50.743Z,26.87
2022-09-12T18:19:18.554Z,26.94
2022-09-12T18:21:45.950Z,26.87
2022-09-12T18:24:13.442Z,26.79
2022-09-12T18:26:40.902Z,26.73
2022-09-12T18:29:08.203Z,26.82
2022-09-12T18:31:35.582Z,26.73
2022-09-12T18:34:03.062Z,26.78
2022-09-12T18:36:31.010Z,27.09
2022-09-12T18:38:59.646Z,27.29
2022-09-12T18:41:27.217Z,27.33
2022-09-12T18:43:56.230Z,27.28
2022-09-12T18:46:23.553Z,27.36
2022-09-12T18:48:50.799Z,27.35
2022-09-12T18:51:23.455Z,27.32
2022-09-12T18:53:53.253Z,27.20
2022-09-12T18:56:21.118Z,27.07
2022-09-12T18:58:55.009Z,27.04
2022-09-12T19:01:27.871Z,26.89
2022-09-12T19:03:55.524Z,26.80
2022-09-12T19:06:26.025Z,26.76
2022-09-12T19:08:54.850Z,26.62
2022-09-12T19:11:22.690Z,26.55
2022-09-12T19:13:51.467Z,26.29
2022-09-12T19:16:22.075Z,26.09
2022-09-12T19:18:50.270Z,26.07
2022-09-12T19:21:20.419Z,26.03
2022-09-12T19:23:47.569Z,25.92
2022-09-12T19:26:16.673Z,25.80
2022-09-12T19:28:45.830Z,25.78
2022-09-12T19:31:15.548Z,25.71
2022-09-12T19:33:42.942Z,25.67
2022-09-12T19:36:34.039Z,25.65
2022-09-12T19:39:00.703Z,25.68
2022-09-12T19:41:28.007Z,25.64
2022-09-12T19:43:58.040Z,25.58
2022-09-12T19:46:26.347Z,25.46
2022-09-12T19:48:53.761Z,25.47
2022-09-12T19:51:22.735Z,25.45
2022-09-12T19:53:50.565Z,25.41
2022-09-12T19:56:21.086Z,25.39
2022-09-12T19:58:55.149Z,25.40
2022-09-12T20:01:28.906Z,25.33
2022-09-12T20:03:57.689Z,25.23
2022-09-12T20:06:25.867Z,25.23
2022-09-12T20:08:52.997Z,25.19
2022-09-12T20:11:22.381Z,25.25
2022-09-12T20:13:49.825Z,25.29
2022-09-12T20:16:29.950Z,25.33
2022-09-12T20:19:00.296Z,25.37
2022-09-12T20:21:34.449Z,25.34
2022-09-12T20:24:12.995Z,25.37
2022-09-12T20:26:40.735Z,25.38
2022-09-12T20:29:08.713Z,25.37
2022-09-12T20:31:37.172Z,25.32
2022-09-12T20:34:05.427Z,25.27
2022-09-12T20:36:33.107Z,25.23
2022-09-12T20:39:02.748Z,25.14
2022-09-12T20:41:33.487Z,25.04
2022-09-12T20:44:00.537Z,24.97
2022-09-12T20:46:28.969Z,25.00
2022-09-12T20:48:56.602Z,25.00
2022-09-12T20:51:26.896Z,24.95
2022-09-12T20:53:55.050Z,24.98
2022-09-12T20:56:23.192Z,25.07
2022-09-12T20:58:51.232Z,25.10
2022-09-12T21:01:18.566Z,25.19
2022-09-12T21:03:46.389Z,25.20
2022-09-12T21:06:17.244Z,25.27
2022-09-12T21:08:45.851Z,25.27
2022-09-12T21:11:13.902Z,25.25
2022-09-12T21:13:41.456Z,25.25
2022-09-12T21:16:13.208Z,25.22
2022-09-12T21:18:41.523Z,25.16
2022-09-12T21:21:10.887Z,25.19
2022-09-12T21:23:38.715Z,25.22
2022-09-12T21:26:06.077Z,25.18
2022-09-12T21:28:33.266Z,25.18
2022-09-12T21:31:00.865Z,25.19
2022-09-12T21:33:28.521Z,25.23
2022-09-12T21:35:55.590Z,25.27
2022-09-12T21:38:22.845Z,25.30
2022-09-12T21:40:49.964Z,25.32
2022-09-12T21:43:17.032Z,25.38
2022-09-12T21:45:44.373Z,25.41
2022-09-12T21:48:11.479Z,25.45
2022-09-12T21:50:38.646Z,25.48
2022-09-12T21:53:05.809Z,25.48
2022-09-12T21:55:33.485Z,25.47
2022-09-12T21:58:00.500Z,25.51
2022-09-12T22:00:27.605Z,25.52
2022-09-12T22:02:54.694Z,25.53
2022-09-12T22:05:21.991Z,25.56
2022-09-12T22:07:49.045Z,25.54
2022-09-12T22:10:16.264Z,25.52
2022-09-12T22:12:46.074Z,25.50
2022-09-12T22:15:38.867Z,25.48
2022-09-12T22:18:01.605Z,25.39
2022-09-12T22:20:28.974Z,25.43
2022-09-12T22:23:14.520Z,25.44
2022-09-12T22:25:41.612Z,25.44
2022-09-12T22:28:09.023Z,25.42
2022-09-12T22:30:36.302Z,25.36
2022-09-12T22:33:03.406Z,25.34
2022-09-12T22:35:30.542Z,25.30
2022-09-12T22:37:57.671Z,25.30
2022-09-12T22:40:24.794Z,25.26
2022-09-12T22:42:53.303Z,25.26
2022-09-12T22:45:20.340Z,25.25
2022-09-12T22:47:47.589Z,25.25
2022-09-12T22:50:14.917Z,25.22
2022-09-12T22:52:42.966Z,25.14
2022-09-12T22:55:10.735Z,25.11
2022-09-12T22:57:38.164Z,25.12
2022-09-12T23:00:10.950Z,25.11
2022-09-12T23:02:38.556Z,25.11
2022-09-12T23:05:06.493Z,25.11
2022-09-12T23:07:33.905Z,25.07
2022-09-12T23:10:01.581Z,25.10
2022-09-12T23:12:28.615Z,25.12
2022-09-12T23:14:55.722Z,25.13
2022-09-12T23:17:22.766Z,25.15
2022-09-12T23:19:49.790Z,25.18
2022-09-12T23:22:16.890Z,25.16
2022-09-12T23:24:44.078Z,25.15
2022-09-12T23:27:11.147Z,25.12
2022-09-12T23:29:38.361Z,25.09
2022-09-12T23:32:05.664Z,25.10
2022-09-12T23:34:34.234Z,25.12
2022-09-12T23:37:01.287Z,25.15
2022-09-12T23:39:28.415Z,25.15
2022-09-12T23:41:55.922Z,25.17
2022-09-12T23:44:23.019Z,25.21
2022-09-12T23:46:50.161Z,25.21
2022-09-12T23:49:17.216Z,25.21
2022-09-12T23:51:45.106Z,25.27
2022-09-12T23:54:12.288Z,25.31
2022-09-12T23:56:39.372Z,25.34
2022-09-12T23:59:06.507Z,25.35
